createdAt,value
2022-12-11T00:00:40.558Z,98785.00
2022-12-11T00:02:12.848Z,98800.00
2022-12-11T00:03:47.865Z,98802.00
2022-12-11T00:05:21.167Z,98806.00
2022-12-11T00:06:54.662Z,98801.00
2022-12-11T00:08:27.839Z,98796.00
2022-12-11T00:10:01.199Z,98785.00
2022-12-11T00:11:33.582Z,98792.00
2022-12-11T00:13:07.065Z,98803.00
2022-12-11T00:14:40.159Z,98806.00
2022-12-11T00:16:13.779Z,98792.00
2022-12-11T00:17:46.009Z,98798.00
2022-12-11T00:19:20.630Z,98787.00
2022-12-11T00:20:53.727Z,98793.00
2022-12-11T00:22:26.841Z,98798.00
2022-12-11T00:24:00.167Z,98792.00
2022-12-11T00:25:32.551Z,98787.00
2022-12-11T00:27:06.226Z,98800.00
2022-12-11T00:28:39.577Z,98797.00
2022-12-11T00:30:13.087Z,98798.00
2022-12-11T00:31:46.448Z,98788.00
2022-12-11T00:33:18.702Z,98793.00
2022-12-11T00:34:53.138Z,98793.00
2022-12-11T00:36:28.315Z,98792.00
2022-12-11T00:38:01.465Z,98795.00
2022-12-11T00:39:34.698Z,98805.00
2022-12-11T00:41:06.944Z,98800.00
2022-12-11T00:42:40.083Z,98796.00
2022-12-11T00:44:13.265Z,98811.00
2022-12-11T00:45:48.320Z,98807.00
2022-12-11T00:47:21.519Z,98807.00
2022-12-11T00:48:54.661Z,98800.00
2022-12-11T00:50:29.705Z,98787.00
2022-12-11T00:52:02.938Z,98799.00
2022-12-11T00:53:37.152Z,98803.00
2022-12-11T00:55:11.262Z,98796.00
2022-12-11T00:56:44.837Z,98798.00
2022-12-11T00:58:18.344Z,98801.00
2022-12-11T00:59:51.454Z,98794.00
2022-12-11T01:01:26.653Z,98798.00
2022-12-11T01:03:00.281Z,98794.00
2022-12-11T01:04:36.216Z,98788.00
2022-12-11T01:06:16.861Z,98786.00
2022-12-11T01:07:50.211Z,98794.00
2022-12-11T01:09:40.759Z,98793.00
2022-12-11T01:11:17.379Z,98797.00
2022-12-11T01:12:49.743Z,98794.00
2022-12-11T01:14:22.928Z,98792.00
2022-12-11T01:15:56.352Z,98782.00
2022-12-11T01:17:29.618Z,98793.00
2022-12-11T01:19:03.283Z,98797.00
2022-12-11T01:20:38.133Z,98795.00
2022-12-11T01:22:12.666Z,98783.00
2022-12-11T01:23:45.822Z,98795.00
2022-12-11T01:25:18.197Z,98783.00
2022-12-11T01:26:51.332Z,98780.00
2022-12-11T01:28:24.511Z,98786.00
2022-12-11T01:29:57.940Z,98787.00
2022-12-11T01:31:31.213Z,98786.00
2022-12-11T01:33:05.627Z,98788.00
2022-12-11T01:34:38.264Z,98779.00
2022-12-11T01:36:15.696Z,98784.00
2022-12-11T01:37:49.629Z,98797.00
2022-12-11T01:39:23.009Z,98797.00
2022-12-11T01:40:56.254Z,98782.00
2022-12-11T01:42:29.503Z,98794.00
2022-12-11T01:44:06.907Z,98794.00
2022-12-11T01:45:44.589Z,98794.00
2022-12-11T01:47:17.233Z,98786.00
2022-12-11T01:48:50.453Z,98788.00
2022-12-11T01:50:23.463Z,98781.00
2022-12-11T01:52:02.445Z,98788.00
2022-12-11T01:53:41.864Z,98787.00
2022-12-11T01:55:15.130Z,98793.00
2022-12-11T01:56:53.025Z,98788.00
2022-12-11T01:58:32.210Z,98793.00
2022-12-11T02:00:06.186Z,98786.00
2022-12-11T02:02:07.008Z,98785.00
2022-12-11T02:03:40.416Z,98798.00
2022-12-11T02:05:13.348Z,98778.00
2022-12-11T02:06:50.821Z,98792.00
2022-12-11T02:08:24.074Z,98795.00
2022-12-11T02:09:56.834Z,98781.00
2022-12-11T02:11:45.541Z,98788.00
2022-12-11T02:13:28.752Z,98784.00
2022-12-11T02:15:18.073Z,98783.00
2022-12-11T02:16:59.110Z,98780.00
2022-12-11T02:18:43.283Z,98782.00
2022-12-11T02:20:24.071Z,98779.00
2022-12-11T02:21:58.864Z,98776.00
2022-12-11T02:24:08.080Z,98780.00
2022-12-11T02:25:56.053Z,98778.00
2022-12-11T02:27:37.909Z,98772.00
2022-12-11T02:29:20.436Z,98779.00
2022-12-11T02:31:01.244Z,98773.00
2022-12-11T02:32:42.292Z,98776.00
2022-12-11T02:34:25.448Z,98772.00
2022-12-11T02:35:59.155Z,98781.00
2022-12-11T02:37:35.093Z,98770.00
2022-12-11T02:39:13.673Z,98770.00
2022-12-11T02:40:52.697Z,98772.00
2022-12-11T02:42:32.237Z,98775.00
2022-12-11T02:44:07.121Z,98786.00
2022-12-11T02:45:44.977Z,98773.00
2022-12-11T02:47:22.293Z,98778.00
2022-12-11T02:48:57.358Z,98773.00
2022-12-11T02:50:31.523Z,98781.00
2022-12-11T02:52:07.774Z,98778.00
2022-12-11T02:53:44.017Z,98777.00
2022-12-11T02:55:18.947Z,98770.00
2022-12-11T02:56:57.218Z,98767.00
2022-12-11T02:58:34.110Z,98760.00
2022-12-11T03:00:11.187Z,98763.00
2022-12-11T03:01:47.179Z,98772.00
2022-12-11T03:03:20.424Z,98766.00
2022-12-11T03:04:53.814Z,98760.00
2022-12-11T03:06:35.550Z,98763.00
2022-12-11T03:08:08.767Z,98751.00
2022-12-11T03:09:44.810Z,98760.00
2022-12-11T03:11:18.308Z,98752.00
2022-12-11T03:12:56.382Z,98746.00
2022-12-11T03:14:29.511Z,98755.00
2022-12-11T03:16:13.077Z,98737.00
2022-12-11T03:18:04.822Z,98751.00
2022-12-11T03:19:46.098Z,98745.00
2022-12-11T03:21:27.463Z,98751.00
2022-12-11T03:23:13.659Z,98752.00
2022-12-11T03:24:53.944Z,98753.00
2022-12-11T03:26:27.820Z,98753.00
2022-12-11T03:28:12.117Z,98751.00
2022-12-11T03:29:54.944Z,98750.00
2022-12-11T03:31:35.671Z,98741.00
2022-12-11T03:33:15.863Z,98743.00
2022-12-11T03:34:58.409Z,98742.00
2022-12-11T03:36:37.308Z,98744.00
2022-12-11T03:38:18.634Z,98744.00
2022-12-11T03:39:59.327Z,98752.00
2022-12-11T03:41:35.239Z,98746.00
2022-12-11T03:43:09.375Z,98746.00
2022-12-11T03:44:47.500Z,98747.00
2022-12-11T03:46:28.621Z,98748.00
2022-12-11T03:48:03.431Z,98744.00
2022-12-11T03:49:43.257Z,98749.00
2022-12-11T03:51:18.513Z,98746.00
2022-12-11T03:52:53.300Z,98743.00
2022-12-11T03:54:27.732Z,98742.00
2022-12-11T03:56:02.766Z,98741.00
2022-12-11T03:57:38.910Z,98732.00
2022-12-11T03:59:11.116Z,98738.00
2022-12-11T04:00:44.542Z,98727.00
2022-12-11T04:02:16.806Z,98735.00
2022-12-11T04:03:50.012Z,98734.00
2022-12-11T04:05:23.686Z,98739.00
2022-12-11T04:06:56.950Z,98749.00
2022-12-11T04:08:30.444Z,98745.00
2022-12-11T04:10:05.421Z,98749.00
2022-12-11T04:11:38.217Z,98739.00
2022-12-11T04:13:12.023Z,98742.00
2022-12-11T04:15:02.776Z,98739.00
2022-12-11T04:16:37.633Z,98748.00
2022-12-11T04:18:25.553Z,98739.00
2022-12-11T04:20:17.081Z,98752.00
2022-12-11T04:22:09.519Z,98740.00
2022-12-11T04:24:00.083Z,98743.00
2022-12-11T04:25:33.576Z,98749.00
2022-12-11T04:27:10.108Z,98748.00
2022-12-11T04:28:44.782Z,98748.00
2022-12-11T04:30:22.209Z,98746.00
2022-12-11T04:31:55.525Z,98744.00
2022-12-11T04:33:29.016Z,98741.00
2022-12-11T04:35:01.428Z,98739.00
2022-12-11T04:36:34.848Z,98748.00
2022-12-11T04:38:09.379Z,98742.00
2022-12-11T04:39:41.571Z,98748.00
2022-12-11T04:41:16.743Z,98745.00
2022-12-11T04:42:50.030Z,98748.00
2022-12-11T04:44:23.125Z,98740.00
2022-12-11T04:46:03.821Z,98732.00
2022-12-11T04:47:38.625Z,98736.00
2022-12-11T04:49:12.682Z,98743.00
2022-12-11T04:50:45.213Z,98732.00
2022-12-11T04:52:19.219Z,98728.00
2022-12-11T04:53:53.931Z,98741.00
2022-12-11T04:55:27.374Z,98733.00
2022-12-11T04:57:00.640Z,98739.00
2022-12-11T04:58:35.796Z,98739.00
2022-12-11T05:00:14.669Z,98737.00
2022-12-11T05:01:48.466Z,98738.00
2022-12-11T05:03:22.130Z,98738.00
2022-12-11T05:04:55.307Z,98733.00
2022-12-11T05:06:28.758Z,98748.00
2022-12-11T05:08:00.979Z,98743.00
2022-12-11T05:09:35.714Z,98732.00
2022-12-11T05:11:11.709Z,98736.00
2022-12-11T05:12:45.038Z,98736.00
2022-12-11T05:14:18.775Z,98734.00
2022-12-11T05:15:52.002Z,98734.00
2022-12-11T05:17:25.254Z,98727.00
2022-12-11T05:18:57.399Z,98729.00
2022-12-11T05:20:30.809Z,98728.00
2022-12-11T05:22:03.957Z,98729.00
2022-12-11T05:23:38.272Z,98735.00
2022-12-11T05:25:13.047Z,98726.00
2022-12-11T05:26:45.868Z,98731.00
2022-12-11T05:28:19.150Z,98728.00
2022-12-11T05:29:57.753Z,98732.00
2022-12-11T05:31:32.746Z,98728.00
2022-12-11T05:33:06.223Z,98724.00
2022-12-11T05:34:39.531Z,98722.00
2022-12-11T05:36:18.396Z,98719.00
2022-12-11T05:37:51.696Z,98723.00
2022-12-11T05:39:27.992Z,98721.00
2022-12-11T05:41:06.327Z,98721.00
2022-12-11T05:42:39.670Z,98725.00
2022-12-11T05:44:14.075Z,98715.00
2022-12-11T05:45:47.297Z,98723.00
2022-12-11T05:47:20.492Z,98729.00
2022-12-11T05:48:57.435Z,98723.00
2022-12-11T05:50:30.480Z,98724.00
2022-12-11T05:52:03.923Z,98719.00
2022-12-11T05:53:38.063Z,98711.00
2022-12-11T05:55:12.836Z,98714.00
2022-12-11T05:56:50.175Z,98718.00
2022-12-11T05:58:22.520Z,98720.00
2022-12-11T05:59:55.828Z,98716.00
2022-12-11T06:01:31.558Z,98722.00
2022-12-11T06:03:05.057Z,98723.00
2022-12-11T06:04:38.293Z,98715.00
2022-12-11T06:06:11.986Z,98717.00
2022-12-11T06:07:45.374Z,98717.00
2022-12-11T06:09:19.029Z,98715.00
2022-12-11T06:10:52.613Z,98718.00
2022-12-11T06:12:26.122Z,98713.00
2022-12-11T06:13:59.505Z,98714.00
2022-12-11T06:15:33.869Z,98708.00
2022-12-11T06:17:07.516Z,98702.00
2022-12-11T06:18:43.351Z,98707.00
2022-12-11T06:20:16.727Z,98703.00
2022-12-11T06:21:49.841Z,98699.00
2022-12-11T06:23:22.072Z,98703.00
2022-12-11T06:24:55.252Z,98697.00
2022-12-11T06:26:30.056Z,98705.00
2022-12-11T06:28:04.919Z,98700.00
2022-12-11T06:29:38.266Z,98703.00
2022-12-11T06:31:11.458Z,98699.00
2022-12-11T06:32:45.207Z,98709.00
2022-12-11T06:34:18.466Z,98705.00
2022-12-11T06:35:50.768Z,98708.00
2022-12-11T06:37:24.036Z,98699.00
2022-12-11T06:38:57.355Z,98710.00
2022-12-11T06:40:30.685Z,98703.00
2022-12-11T06:42:03.981Z,98706.00
2022-12-11T06:43:41.060Z,98707.00
2022-12-11T06:45:13.454Z,98711.00
2022-12-11T06:46:47.038Z,98718.00
2022-12-11T06:48:21.638Z,98706.00
2022-12-11T06:49:55.741Z,98714.00
2022-12-11T06:51:28.853Z,98715.00
2022-12-11T06:53:02.023Z,98710.00
2022-12-11T06:54:35.189Z,98717.00
2022-12-11T06:56:12.686Z,98725.00
2022-12-11T06:57:46.079Z,98719.00
2022-12-11T06:59:20.557Z,98719.00
2022-12-11T07:00:53.861Z,98714.00
2022-12-11T07:02:27.069Z,98719.00
2022-12-11T07:04:01.477Z,98703.00
2022-12-11T07:05:35.121Z,98711.00
2022-12-11T07:07:09.099Z,98715.00
2022-12-11T07:08:42.877Z,98720.00
2022-12-11T07:10:16.636Z,98712.00
2022-12-11T07:11:51.067Z,98710.00
2022-12-11T07:13:24.213Z,98720.00
2022-12-11T07:14:58.681Z,98721.00
2022-12-11T07:16:31.941Z,98716.00
2022-12-11T07:18:05.461Z,98724.00
2022-12-11T07:19:38.836Z,98715.00
2022-12-11T07:21:15.423Z,98728.00
2022-12-11T07:22:48.586Z,98720.00
2022-12-11T07:24:22.180Z,98728.00
2022-12-11T07:25:56.230Z,98726.00
2022-12-11T07:27:30.060Z,98721.00
2022-12-11T07:29:03.382Z,98714.00
2022-12-11T07:30:39.735Z,98723.00
2022-12-11T07:32:13.016Z,98724.00
2022-12-11T07:33:47.059Z,98722.00
2022-12-11T07:35:20.620Z,98722.00
2022-12-11T07:36:53.916Z,98721.00
2022-12-11T07:38:27.260Z,98724.00
2022-12-11T07:40:00.501Z,98719.00
2022-12-11T07:41:33.984Z,98722.00
2022-12-11T07:43:07.529Z,98713.00
2022-12-11T07:44:40.935Z,98713.00
2022-12-11T07:46:18.979Z,98717.00
2022-12-11T07:47:52.350Z,98718.00
2022-12-11T07:49:25.875Z,98717.00
2022-12-11T07:51:10.037Z,98716.00
2022-12-11T07:52:43.217Z,98711.00
2022-12-11T07:54:17.679Z,98710.00
2022-12-11T07:55:50.859Z,98723.00
2022-12-11T07:57:23.986Z,98719.00
2022-12-11T07:58:57.537Z,98724.00
2022-12-11T08:00:30.926Z,98729.00
2022-12-11T08:02:06.536Z,98734.00
2022-12-11T08:03:40.137Z,98733.00
2022-12-11T08:05:13.599Z,98728.00
2022-12-11T08:06:47.660Z,98740.00
2022-12-11T08:08:21.301Z,98722.00
2022-12-11T08:09:54.474Z,98738.00
2022-12-11T08:11:28.517Z,98742.00
2022-12-11T08:13:02.493Z,98735.00
2022-12-11T08:14:35.853Z,98741.00
2022-12-11T08:16:13.005Z,98742.00
2022-12-11T08:17:47.667Z,98740.00
2022-12-11T08:19:20.917Z,98738.00
2022-12-11T08:20:54.126Z,98734.00
2022-12-11T08:22:27.227Z,98736.00
2022-12-11T08:24:00.392Z,98732.00
2022-12-11T08:25:33.792Z,98731.00
2022-12-11T08:27:06.932Z,98731.00
2022-12-11T08:28:40.447Z,98738.00
2022-12-11T08:30:14.596Z,98737.00
2022-12-11T08:31:47.839Z,98734.00
2022-12-11T08:33:22.735Z,98737.00
2022-12-11T08:34:56.031Z,98737.00
2022-12-11T08:36:29.639Z,98731.00
2022-12-11T08:38:03.098Z,98743.00
2022-12-11T08:39:37.421Z,98738.00
2022-12-11T08:41:12.411Z,98744.00
2022-12-11T08:42:45.528Z,98738.00
2022-12-11T08:44:19.948Z,98739.00
2022-12-11T08:45:53.126Z,98734.00
2022-12-11T08:47:26.499Z,98724.00
2022-12-11T08:49:01.456Z,98733.00
2022-12-11T08:50:34.675Z,98730.00
2022-12-11T08:52:08.108Z,98729.00
2022-12-11T08:53:42.258Z,98725.00
2022-12-11T08:55:15.827Z,98726.00
2022-12-11T08:56:52.288Z,98731.00
2022-12-11T08:58:30.741Z,98726.00
2022-12-11T09:00:06.275Z,98731.00
2022-12-11T09:01:39.820Z,98725.00
2022-12-11T09:03:13.199Z,98729.00
2022-12-11T09:04:47.696Z,98741.00
2022-12-11T09:06:24.264Z,98739.00
2022-12-11T09:07:59.411Z,98742.00
2022-12-11T09:09:32.760Z,98742.00
2022-12-11T09:11:08.222Z,98750.00
2022-12-11T09:12:41.572Z,98741.00
2022-12-11T09:14:15.974Z,98748.00
2022-12-11T09:15:49.109Z,98742.00
2022-12-11T09:17:22.294Z,98748.00
2022-12-11T09:18:58.226Z,98752.00
2022-12-11T09:20:32.697Z,98748.00
2022-12-11T09:22:05.790Z,98733.00
2022-12-11T09:23:39.257Z,98741.00
2022-12-11T09:25:12.901Z,98730.00
2022-12-11T09:26:47.543Z,98747.00
2022-12-11T09:28:20.855Z,98737.00
2022-12-11T09:29:54.259Z,98736.00
2022-12-11T09:31:32.246Z,98721.00
2022-12-11T09:33:06.006Z,98737.00
2022-12-11T09:34:39.374Z,98738.00
2022-12-11T09:36:14.083Z,98740.00
2022-12-11T09:37:47.154Z,98739.00
2022-12-11T09:39:20.456Z,98742.00
2022-12-11T09:40:53.629Z,98743.00
2022-12-11T09:42:37.518Z,98735.00
2022-12-11T09:44:23.672Z,98731.00
2022-12-11T09:45:57.252Z,98738.00
2022-12-11T09:47:36.352Z,98732.00
2022-12-11T09:49:29.536Z,98739.00
2022-12-11T09:51:16.302Z,98735.00
2022-12-11T09:53:05.047Z,98726.00
2022-12-11T09:54:40.397Z,98721.00
2022-12-11T09:56:30.050Z,98727.00
2022-12-11T09:58:14.270Z,98721.00
2022-12-11T10:00:09.045Z,98722.00
2022-12-11T10:01:53.599Z,98727.00
2022-12-11T10:04:03.535Z,98714.00
2022-12-11T10:05:47.532Z,98713.00
2022-12-11T10:07:34.111Z,98710.00
2022-12-11T10:09:15.335Z,98705.00
2022-12-11T10:10:58.428Z,98715.00
2022-12-11T10:12:48.490Z,98715.00
2022-12-11T10:14:37.744Z,98704.00
2022-12-11T10:16:26.016Z,98699.00
2022-12-11T10:18:04.824Z,98705.00
2022-12-11T10:19:39.150Z,98706.00
2022-12-11T10:21:15.423Z,98696.00
2022-12-11T10:22:52.011Z,98703.00
2022-12-11T10:26:31.151Z,98708.00
2022-12-11T10:28:14.280Z,98699.00
2022-12-11T10:29:48.590Z,98699.00
2022-12-11T10:31:34.088Z,98699.00
2022-12-11T10:33:21.688Z,98696.00
2022-12-11T10:35:03.795Z,98705.00
2022-12-11T10:36:42.079Z,98704.00
2022-12-11T10:38:24.811Z,98697.00
2022-12-11T10:39:57.980Z,98692.00
2022-12-11T10:41:39.922Z,98700.00
2022-12-11T10:43:13.609Z,98687.00
2022-12-11T10:44:58.979Z,98695.00
2022-12-11T10:46:33.129Z,98693.00
2022-12-11T10:48:11.453Z,98687.00
2022-12-11T10:49:54.042Z,98685.00
2022-12-11T10:51:37.654Z,98688.00
2022-12-11T10:53:22.638Z,98684.00
2022-12-11T10:55:03.793Z,98677.00
2022-12-11T10:56:39.060Z,98672.00
2022-12-11T10:58:19.676Z,98677.00
2022-12-11T10:59:53.801Z,98671.00
2022-12-11T11:01:30.924Z,98678.00
2022-12-11T11:03:06.205Z,98683.00
2022-12-11T11:04:44.978Z,98687.00
2022-12-11T11:06:21.602Z,98684.00
2022-12-11T11:08:05.790Z,98676.00
2022-12-11T11:09:41.099Z,98669.00
2022-12-11T11:11:26.872Z,98677.00
2022-12-11T11:13:03.241Z,98672.00
2022-12-11T11:14:36.559Z,98675.00
2022-12-11T11:16:16.217Z,98663.00
2022-12-11T11:17:55.791Z,98669.00
2022-12-11T11:19:34.477Z,98668.00
2022-12-11T11:21:08.405Z,98668.00
2022-12-11T11:22:51.905Z,98670.00
2022-12-11T11:24:39.505Z,98665.00
2022-12-11T11:26:15.033Z,98656.00
2022-12-11T11:27:53.883Z,98665.00
2022-12-11T11:29:32.995Z,98671.00
2022-12-11T11:31:11.808Z,98662.00
2022-12-11T11:32:45.582Z,98656.00
2022-12-11T11:34:22.476Z,98662.00
2022-12-11T11:35:58.498Z,98661.00
2022-12-11T11:37:34.568Z,98662.00
2022-12-11T11:39:22.348Z,98653.00
2022-12-11T11:41:08.854Z,98655.00
2022-12-11T11:42:56.707Z,98663.00
2022-12-11T11:44:37.177Z,98662.00
2022-12-11T11:46:18.628Z,98648.00
2022-12-11T11:48:11.123Z,98655.00
2022-12-11T11:49:56.654Z,98647.00
2022-12-11T11:51:39.898Z,98660.00
2022-12-11T11:53:20.330Z,98662.00
2022-12-11T11:55:10.841Z,98656.00
2022-12-11T11:56:56.860Z,98655.00
2022-12-11T11:58:42.686Z,98654.00
2022-12-11T12:00:22.248Z,98652.00
2022-12-11T12:01:59.572Z,98651.00
2022-12-11T12:03:32.785Z,98646.00
2022-12-11T12:05:07.278Z,98653.00
2022-12-11T12:07:11.622Z,98641.00
2022-12-11T12:08:54.868Z,98643.00
2022-12-11T12:10:39.088Z,98635.00
2022-12-11T12:12:34.023Z,98643.00
2022-12-11T12:14:52.677Z,98650.00
2022-12-11T12:18:52.407Z,98645.00
2022-12-11T12:20:39.993Z,98642.00
2022-12-11T12:22:34.890Z,98646.00
2022-12-11T12:24:25.023Z,98642.00
2022-12-11T12:26:10.037Z,98642.00
2022-12-11T12:27:53.131Z,98635.00
2022-12-11T12:29:45.678Z,98633.00
2022-12-11T12:31:33.350Z,98630.00
2022-12-11T12:33:27.927Z,98630.00
2022-12-11T12:35:17.657Z,98630.00
2022-12-11T12:37:06.364Z,98624.00
2022-12-11T12:38:54.594Z,98628.00
2022-12-11T12:40:35.426Z,98634.00
2022-12-11T12:42:22.391Z,98634.00
2022-12-11T12:44:14.492Z,98624.00
2022-12-11T12:46:00.099Z,98634.00
2022-12-11T12:47:37.481Z,98630.00
2022-12-11T12:49:17.271Z,98631.00
2022-12-11T12:50:52.013Z,98639.00
2022-12-11T12:52:33.324Z,98637.00
2022-12-11T12:54:13.105Z,98637.00
2022-12-11T12:55:48.807Z,98639.00
2022-12-11T12:57:23.012Z,98627.00
2022-12-11T12:58:56.296Z,98630.00
2022-12-11T13:00:34.521Z,98633.00
2022-12-11T13:02:18.131Z,98627.00
2022-12-11T13:03:56.940Z,98616.00
2022-12-11T13:05:35.276Z,98618.00
2022-12-11T13:07:31.446Z,98620.00
2022-12-11T13:09:19.057Z,98619.00
2022-12-11T13:11:03.289Z,98621.00
2022-12-11T13:12:45.291Z,98620.00
2022-12-11T13:14:32.396Z,98620.00
2022-12-11T13:16:26.213Z,98607.00
2022-12-11T13:18:03.123Z,98611.00
2022-12-11T13:19:42.393Z,98620.00
2022-12-11T13:21:32.885Z,98624.00
2022-12-11T13:23:28.656Z,98618.00
2022-12-11T13:25:20.930Z,98628.00
2022-12-11T13:26:54.544Z,98618.00
2022-12-11T13:28:34.453Z,98619.00
2022-12-11T13:30:24.128Z,98613.00
2022-12-11T13:32:01.109Z,98622.00
2022-12-11T13:33:43.875Z,98620.00
2022-12-11T13:35:19.298Z,98623.00
2022-12-11T13:36:54.659Z,98623.00
2022-12-11T13:38:27.856Z,98621.00
2022-12-11T13:40:02.381Z,98626.00
2022-12-11T13:41:38.611Z,98625.00
2022-12-11T13:43:23.338Z,98628.00
2022-12-11T13:44:57.038Z,98625.00
2022-12-11T13:46:36.791Z,98616.00
2022-12-11T13:48:23.699Z,98624.00
2022-12-11T13:50:14.948Z,98630.00
2022-12-11T13:51:55.610Z,98623.00
2022-12-11T13:53:30.526Z,98616.00
2022-12-11T13:55:21.599Z,98618.00
2022-12-11T13:57:02.916Z,98620.00
2022-12-11T13:58:40.533Z,98630.00
2022-12-11T14:00:24.130Z,98628.00
2022-12-11T14:02:03.828Z,98628.00
2022-12-11T14:03:40.094Z,98636.00
2022-12-11T14:05:15.716Z,98616.00
2022-12-11T14:06:50.089Z,98629.00
2022-12-11T14:08:36.674Z,98622.00
2022-12-11T14:10:17.375Z,98616.00
2022-12-11T14:11:56.603Z,98627.00
2022-12-11T14:13:36.152Z,98626.00
2022-12-11T14:15:16.799Z,98621.00
2022-12-11T14:16:52.337Z,98618.00
2022-12-11T14:18:30.820Z,98623.00
2022-12-11T14:20:08.306Z,98618.00
2022-12-11T14:21:42.882Z,98629.00
2022-12-11T14:23:21.941Z,98622.00
2022-12-11T14:24:59.022Z,98630.00
2022-12-11T14:26:34.577Z,98623.00
2022-12-11T14:28:17.777Z,98624.00
2022-12-11T14:29:52.156Z,98625.00
2022-12-11T14:31:33.586Z,98623.00
2022-12-11T14:33:11.334Z,98628.00
2022-12-11T14:34:49.069Z,98625.00
2022-12-11T14:36:23.516Z,98628.00
2022-12-11T14:38:03.266Z,98628.00
2022-12-11T14:39:49.651Z,98623.00
2022-12-11T14:41:43.656Z,98637.00
2022-12-11T14:43:25.696Z,98631.00
2022-12-11T14:45:06.228Z,98632.00
2022-12-11T14:46:47.281Z,98633.00
2022-12-11T14:48:28.794Z,98629.00
2022-12-11T14:50:09.312Z,98631.00
2022-12-11T14:51:43.860Z,98628.00
2022-12-11T14:53:24.255Z,98639.00
2022-12-11T14:55:06.868Z,98637.00
2022-12-11T14:56:40.292Z,98627.00
2022-12-11T14:58:20.030Z,98637.00
2022-12-11T14:59:57.203Z,98638.00
2022-12-11T15:01:33.471Z,98646.00
2022-12-11T15:03:23.349Z,98637.00
2022-12-11T15:05:15.465Z,98645.00
2022-12-11T15:06:51.204Z,98633.00
2022-12-11T15:08:30.520Z,98644.00
2022-12-11T15:10:05.338Z,98643.00
2022-12-11T15:11:39.020Z,98640.00
2022-12-11T15:13:16.708Z,98633.00
2022-12-11T15:14:54.061Z,98630.00
2022-12-11T15:16:35.109Z,98644.00
2022-12-11T15:18:20.470Z,98642.00
2022-12-11T15:19:57.906Z,98643.00
2022-12-11T15:21:36.967Z,98652.00
2022-12-11T15:23:18.567Z,98647.00
2022-12-11T15:24:56.247Z,98636.00
2022-12-11T15:26:39.583Z,98652.00
2022-12-11T15:28:30.379Z,98648.00
2022-12-11T15:30:15.615Z,98625.00
2022-12-11T15:32:02.788Z,98657.00
2022-12-11T15:33:48.973Z,98656.00
2022-12-11T15:35:26.100Z,98641.00
2022-12-11T15:37:04.392Z,98656.00
2022-12-11T15:38:42.107Z,98650.00
2022-12-11T15:40:17.416Z,98649.00
2022-12-11T15:41:53.269Z,98660.00
2022-12-11T15:43:27.652Z,98652.00
2022-12-11T15:45:02.177Z,98655.00
2022-12-11T15:46:38.470Z,98656.00
2022-12-11T15:48:12.579Z,98657.00
2022-12-11T15:49:45.747Z,98651.00
2022-12-11T15:51:22.871Z,98656.00
2022-12-11T15:52:58.729Z,98655.00
2022-12-11T15:54:34.812Z,98654.00
2022-12-11T15:56:17.448Z,98660.00
2022-12-11T15:57:55.120Z,98660.00
2022-12-11T15:59:29.029Z,98655.00
2022-12-11T16:01:02.609Z,98656.00
2022-12-11T16:02:36.172Z,98671.00
2022-12-11T16:04:11.945Z,98662.00
2022-12-11T16:05:46.606Z,98656.00
2022-12-11T16:07:23.131Z,98665.00
2022-12-11T16:08:56.681Z,98656.00
2022-12-11T16:10:30.590Z,98656.00
2022-12-11T16:12:05.726Z,98658.00
2022-12-11T16:13:40.416Z,98661.00
2022-12-11T16:15:22.872Z,98663.00
2022-12-11T16:16:56.898Z,98668.00
2022-12-11T16:18:30.143Z,98658.00
2022-12-11T16:20:03.783Z,98657.00
2022-12-11T16:21:40.123Z,98658.00
2022-12-11T16:23:16.237Z,98670.00
2022-12-11T16:24:54.267Z,98672.00
2022-12-11T16:26:27.645Z,98669.00
2022-12-11T16:28:03.390Z,98669.00
2022-12-11T16:29:37.218Z,98659.00
2022-12-11T16:31:12.494Z,98661.00
2022-12-11T16:32:46.054Z,98666.00
2022-12-11T16:34:19.918Z,98665.00
2022-12-11T16:35:53.480Z,98671.00
2022-12-11T16:37:26.717Z,98664.00
2022-12-11T16:38:59.903Z,98664.00
2022-12-11T16:40:33.144Z,98662.00
2022-12-11T16:42:07.590Z,98648.00
2022-12-11T16:43:42.366Z,98658.00
2022-12-11T16:45:18.880Z,98661.00
2022-12-11T16:46:53.580Z,98656.00
2022-12-11T16:48:26.730Z,98667.00
2022-12-11T16:50:00.233Z,98667.00
2022-12-11T16:51:33.693Z,98664.00
2022-12-11T16:53:07.055Z,98663.00
2022-12-11T16:54:40.397Z,98667.00
2022-12-11T16:56:13.845Z,98654.00
2022-12-11T16:57:47.178Z,98661.00
2022-12-11T16:59:21.758Z,98658.00
2022-12-11T17:01:01.951Z,98668.00
2022-12-11T17:02:35.373Z,98664.00
2022-12-11T17:04:08.711Z,98656.00
2022-12-11T17:05:42.962Z,98656.00
2022-12-11T17:07:16.776Z,98659.00
2022-12-11T17:08:50.365Z,98654.00
2022-12-11T17:10:24.258Z,98649.00
2022-12-11T17:11:58.377Z,98653.00
2022-12-11T17:13:35.809Z,98661.00
2022-12-11T17:15:11.700Z,98657.00
2022-12-11T17:16:45.258Z,98652.00
2022-12-11T17:18:18.472Z,98656.00
2022-12-11T17:19:51.760Z,98653.00
2022-12-11T17:21:25.635Z,98656.00
2022-12-11T17:22:59.281Z,98652.00
2022-12-11T17:24:32.486Z,98656.00
2022-12-11T17:26:08.640Z,98662.00
2022-12-11T17:27:41.896Z,98657.00
2022-12-11T17:29:15.440Z,98659.00
2022-12-11T17:30:50.350Z,98653.00
2022-12-11T17:32:23.831Z,98659.00
2022-12-11T17:34:07.417Z,98656.00
2022-12-11T17:35:40.559Z,98663.00
2022-12-11T17:37:13.872Z,98660.00
2022-12-11T17:38:47.296Z,98662.00
2022-12-11T17:40:22.657Z,98657.00
2022-12-11T17:41:55.896Z,98653.00
2022-12-11T17:43:29.347Z,98655.00
2022-12-11T17:45:03.664Z,98656.00
2022-12-11T17:46:38.472Z,98655.00
2022-12-11T17:48:12.468Z,98658.00
2022-12-11T17:49:45.923Z,98656.00
2022-12-11T17:51:23.896Z,98663.00
2022-12-11T17:52:58.297Z,98657.00
2022-12-11T17:54:31.547Z,98652.00
2022-12-11T17:56:08.307Z,98656.00
2022-12-11T17:57:41.476Z,98661.00
2022-12-11T17:59:15.135Z,98650.00
2022-12-11T18:00:54.446Z,98653.00
2022-12-11T18:02:29.249Z,98655.00
2022-12-11T18:04:02.962Z,98651.00
2022-12-11T18:05:37.195Z,98659.00
2022-12-11T18:07:10.336Z,98661.00
2022-12-11T18:08:45.513Z,98650.00
2022-12-11T18:10:19.042Z,98643.00
2022-12-11T18:11:54.241Z,98656.00
2022-12-11T18:13:32.085Z,98646.00
2022-12-11T18:15:06.627Z,98652.00
2022-12-11T18:16:40.024Z,98650.00
2022-12-11T18:18:15.860Z,98653.00
2022-12-11T18:19:50.103Z,98652.00
2022-12-11T18:21:28.477Z,98633.00
2022-12-11T18:23:02.901Z,98649.00
2022-12-11T18:24:36.739Z,98646.00
2022-12-11T18:26:11.460Z,98649.00
2022-12-11T18:27:44.985Z,98644.00
2022-12-11T18:29:18.251Z,98647.00
2022-12-11T18:30:52.598Z,98655.00
2022-12-11T18:32:25.889Z,98641.00
2022-12-11T18:34:00.969Z,98652.00
2022-12-11T18:35:34.004Z,98650.00
2022-12-11T18:37:07.198Z,98653.00
2022-12-11T18:38:40.951Z,98658.00
2022-12-11T18:40:14.200Z,98663.00
2022-12-11T18:42:03.472Z,98659.00
2022-12-11T18:43:42.223Z,98653.00
2022-12-11T18:45:15.420Z,98650.00
2022-12-11T18:46:48.663Z,98650.00
2022-12-11T18:48:21.892Z,98654.00
2022-12-11T18:49:56.389Z,98653.00
2022-12-11T18:51:30.385Z,98648.00
2022-12-11T18:53:03.864Z,98647.00
2022-12-11T18:54:37.382Z,98663.00
2022-12-11T18:56:14.451Z,98649.00
2022-12-11T18:57:47.615Z,98649.00
2022-12-11T18:59:21.031Z,98651.00
2022-12-11T19:00:54.274Z,98653.00
2022-12-11T19:02:27.648Z,98651.00
2022-12-11T19:04:09.040Z,98656.00
2022-12-11T19:05:45.455Z,98658.00